Time;durP1;ratioP1;P1;durP2;ratioP2;P2;SDS_P1;SDS_P2;PMS_P1;PMS_P2;Temp;Humidity;BMP_temperature;BMP_pressure;BME280_temperature;BME280_humidity;BME280_pressure;Samples;Min_cycle;Max_cycle;Signal;HPM_P1;HPM_P2
2023/03/24 00:01:50;;;;;;;2.23;2.00;;;12.80;99.90;;;;;;5050324;28;20947;-74
2023/03/24 00:04:17;;;;;;;2.53;2.30;;;12.80;99.90;;;;;;5050066;28;20487;-74
2023/03/24 00:06:44;;;;;;;2.67;2.40;;;12.70;99.90;;;;;;5049977;28;20194;-74
2023/03/24 00:09:11;;;;;;;2.97;2.03;;;12.70;99.90;;;;;;5050474;28;20205;-74
2023/03/24 00:11:38;;;;;;;2.80;2.20;;;12.60;99.90;;;;;;5050007;28;20460;-74
2023/03/24 00:14:06;;;;;;;2.40;2.03;;;12.60;99.90;;;;;;5049840;28;20896;-74
2023/03/24 00:16:33;;;;;;;2.13;1.93;;;12.60;99.90;;;;;;5049658;28;20839;-74
2023/03/24 00:19:01;;;;;;;3.00;1.80;;;12.50;99.90;;;;;;5049498;28;20498;-74
2023/03/24 00:21:27;;;;;;;2.20;2.00;;;12.50;99.90;;;;;;5050707;28;20834;-74
2023/03/24 00:23:57;;;;;;;2.30;2.05;;;12.40;99.90;;;;;;5050790;28;20216;-75
2023/03/24 00:26:24;;;;;;;1.90;1.80;;;12.40;99.90;;;;;;5050029;28;20201;-74
2023/03/24 00:28:51;;;;;;;2.53;1.90;;;12.40;99.90;;;;;;5050471;28;20462;-75
2023/03/24 00:31:20;;;;;;;2.43;2.23;;;12.50;99.90;;;;;;5049553;28;20679;-75
2023/03/24 00:33:49;;;;;;;2.50;2.20;;;12.50;99.90;;;;;;5049332;28;20490;-75
2023/03/24 00:36:18;;;;;;;3.40;2.10;;;12.60;99.90;;;;;;5049462;28;20946;-73
2023/03/24 00:38:46;;;;;;;2.13;1.85;;;12.60;99.90;;;;;;5049213;28;20205;-73
2023/03/24 00:41:13;;;;;;;2.30;2.10;;;12.60;99.90;;;;;;5048856;28;20296;-74
2023/03/24 00:43:40;;;;;;;3.38;2.15;;;12.70;99.90;;;;;;5048792;28;20201;-74
2023/03/24 00:46:10;;;;;;;2.60;2.05;;;12.80;99.90;;;;;;5049591;28;20200;-74
2023/03/24 00:48:40;;;;;;;2.22;1.90;;;12.80;99.90;;;;;;5049046;28;20225;-74
2023/03/24 00:51:09;;;;;;;3.00;2.00;;;12.80;99.90;;;;;;5045319;28;20287;-74
2023/03/24 00:53:42;;;;;;;2.53;1.92;;;12.80;99.90;;;;;;5049427;28;20258;-73
2023/03/24 00:56:10;;;;;;;3.65;2.47;;;12.80;99.90;;;;;;5049243;28;20219;-74
2023/03/24 00:58:37;;;;;;;2.10;1.80;;;12.80;99.90;;;;;;5049394;28;20201;-74
2023/03/24 01:01:05;;;;;;;2.00;1.60;;;12.80;99.90;;;;;;5050130;28;20460;-73
2023/03/24 01:03:33;;;;;;;2.20;1.92;;;12.80;99.90;;;;;;5050008;28;20463;-74
2023/03/24 01:06:03;;;;;;;1.50;1.40;;;12.80;99.90;;;;;;5050009;28;20540;-73
2023/03/24 01:08:30;;;;;;;3.42;1.98;;;12.80;99.90;;;;;;5048476;28;20720;-73
2023/03/24 01:11:00;;;;;;;2.60;1.90;;;12.80;99.90;;;;;;5049260;28;20603;-75
2023/03/24 01:13:28;;;;;;;2.20;1.80;;;12.80;99.90;;;;;;5049136;28;20205;-76
2023/03/24 01:15:57;;;;;;;2.67;2.00;;;12.80;99.90;;;;;;5048871;28;20479;-75
2023/03/24 01:18:24;;;;;;;2.10;1.90;;;12.70;99.90;;;;;;5048988;28;20981;-75
2023/03/24 01:20:51;;;;;;;1.80;1.70;;;12.70;99.90;;;;;;5048829;28;20463;-75
2023/03/24 01:23:21;;;;;;;2.28;1.77;;;12.70;99.90;;;;;;5049338;28;20201;-75
2023/03/24 01:25:49;;;;;;;2.30;1.63;;;12.60;99.90;;;;;;5049393;28;20315;-75
2023/03/24 01:28:20;;;;;;;2.97;2.10;;;12.60;99.90;;;;;;5050071;28;20495;-75
2023/03/24 01:30:47;;;;;;;3.75;2.10;;;12.50;99.90;;;;;;5050550;28;20998;-75
2023/03/24 01:33:14;;;;;;;2.60;1.73;;;12.50;99.90;;;;;;5050066;28;20205;-75
2023/03/24 01:35:41;;;;;;;2.95;1.80;;;12.40;99.90;;;;;;5049339;28;20479;-75
2023/03/24 01:38:10;;;;;;;2.53;1.80;;;12.40;99.90;;;;;;5048357;22;20237;-68
2023/03/24 01:40:39;;;;;;;2.50;2.08;;;12.30;99.90;;;;;;5029303;28;20716;-68
2023/03/24 01:43:13;;;;;;;2.53;2.30;;;12.30;99.90;;;;;;5029679;28;20202;-68
2023/03/24 01:45:57;;;;;;;2.42;2.08;;;12.20;99.90;;;;;;5029468;28;21049;-68
2023/03/24 01:48:27;;;;;;;1.60;1.50;;;12.10;99.90;;;;;;5028886;28;20673;-68
2023/03/24 01:51:01;;;;;;;2.22;2.03;;;12.00;99.90;;;;;;5042903;28;20467;-68
2023/03/24 01:53:30;;;;;;;1.88;1.63;;;12.00;99.90;;;;;;5051529;28;20213;-68
2023/03/24 01:55:59;;;;;;;3.63;1.90;;;12.00;99.90;;;;;;5053138;28;20586;-68
2023/03/24 01:58:29;;;;;;;1.50;1.40;;;12.00;99.90;;;;;;5052601;28;20209;-68
2023/03/24 02:00:56;;;;;;;2.20;1.95;;;12.00;99.90;;;;;;5053125;28;20851;-68
2023/03/24 02:03:24;;;;;;;1.40;1.15;;;12.00;99.90;;;;;;5052665;28;20573;-68
2023/03/24 02:05:56;;;;;;;1.95;1.75;;;12.00;99.90;;;;;;5053045;28;20205;-68
2023/03/24 02:08:28;;;;;;;3.43;2.13;;;12.00;99.90;;;;;;5052237;28;20205;-68
2023/03/24 02:10:56;;;;;;;2.95;1.95;;;11.90;99.90;;;;;;5033020;28;20464;-68
2023/03/24 02:13:24;;;;;;;2.55;1.80;;;11.80;99.90;;;;;;5032861;28;20554;-68
2023/03/24 02:16:04;;;;;;;3.00;1.80;;;11.90;99.90;;;;;;5032843;28;20703;-68
2023/03/24 02:18:43;;;;;;;2.03;1.50;;;12.00;99.90;;;;;;5032201;28;20665;-68
2023/03/24 02:21:47;;;;;;;1.98;1.83;;;12.20;99.90;;;;;;5032873;28;20288;-68
2023/03/24 02:24:44;;;;;;;2.00;1.80;;;12.40;99.90;;;;;;5032834;28;20229;-68
2023/03/24 02:27:31;;;;;;;1.50;1.40;;;12.50;99.90;;;;;;5032563;28;20198;-68
2023/03/24 02:30:23;;;;;;;1.88;1.77;;;12.50;99.90;;;;;;5045924;28;20688;-68
2023/03/24 02:33:20;;;;;;;1.67;1.58;;;12.50;99.90;;;;;;5052393;28;20657;-68
2023/03/24 02:36:32;;;;;;;1.50;1.40;;;12.60;99.90;;;;;;5040490;28;20225;-68
2023/03/24 02:39:44;;;;;;;1.80;1.40;;;12.70;99.90;;;;;;4951930;28;20964;-68
2023/03/24 02:42:23;;;;;;;1.30;1.20;;;12.70;99.90;;;;;;4934434;28;20459;-68
2023/03/24 02:44:57;;;;;;;2.07;1.87;;;12.80;99.90;;;;;;5037125;28;20533;-68
2023/03/24 02:47:29;;;;;;;2.13;1.88;;;12.80;99.90;;;;;;5051692;28;20458;-68
2023/03/24 02:50:02;;;;;;;2.27;1.60;;;12.90;99.90;;;;;;5052308;28;20208;-68
2023/03/24 02:52:36;;;;;;;2.70;1.60;;;12.90;99.90;;;;;;5051825;28;20509;-68
2023/03/24 02:55:12;;;;;;;5.40;1.80;;;13.00;99.90;;;;;;5051922;28;21001;-68
2023/03/24 02:57:43;;;;;;;2.00;1.80;;;13.00;99.90;;;;;;5051421;28;20209;-68
2023/03/24 03:00:17;;;;;;;1.43;1.30;;;13.10;99.90;;;;;;5052180;28;20468;-68
2023/03/24 03:02:48;;;;;;;2.27;1.40;;;13.10;99.90;;;;;;5051412;28;20571;-68
2023/03/24 03:05:21;;;;;;;2.07;1.40;;;13.20;99.90;;;;;;5051895;28;20487;-68
2023/03/24 03:07:51;;;;;;;1.77;1.67;;;13.20;99.90;;;;;;5051411;28;20517;-68
2023/03/24 03:10:23;;;;;;;1.90;1.80;;;13.10;99.90;;;;;;5051560;28;20947;-68
2023/03/24 03:12:54;;;;;;;1.90;1.67;;;13.10;99.90;;;;;;5051482;28;20471;-68
2023/03/24 03:15:23;;;;;;;2.00;1.80;;;13.10;99.90;;;;;;5051401;28;20993;-68
2023/03/24 03:17:53;;;;;;;1.70;1.60;;;13.10;99.90;;;;;;5051377;28;20200;-68
2023/03/24 03:20:23;;;;;;;1.50;1.40;;;13.10;99.90;;;;;;5051638;28;20486;-68
2023/03/24 03:22:55;;;;;;;1.83;1.40;;;13.10;99.90;;;;;;5051626;28;20771;-68
2023/03/24 03:25:27;;;;;;;1.70;1.60;;;13.20;99.90;;;;;;5051293;28;20888;-67
2023/03/24 03:27:57;;;;;;;2.27;1.70;;;13.20;99.90;;;;;;5051305;28;20460;-68
2023/03/24 03:30:28;;;;;;;1.50;1.40;;;13.20;99.90;;;;;;5051450;28;20470;-68
2023/03/24 03:33:01;;;;;;;2.60;1.87;;;13.20;99.90;;;;;;5051530;28;20460;-68
2023/03/24 03:35:31;;;;;;;2.50;1.57;;;13.20;99.90;;;;;;5050850;28;20479;-68
2023/03/24 03:38:05;;;;;;;2.45;1.50;;;13.20;99.90;;;;;;5050955;28;20471;-68
2023/03/24 03:40:37;;;;;;;1.70;1.50;;;13.30;99.90;;;;;;5051032;28;20201;-68
2023/03/24 03:43:05;;;;;;;2.07;1.87;;;13.30;99.90;;;;;;5051414;28;20463;-67
2023/03/24 03:45:33;;;;;;;2.03;1.70;;;13.20;99.90;;;;;;5050783;28;20507;-67
2023/03/24 03:48:00;;;;;;;1.70;1.60;;;13.20;99.90;;;;;;5050950;28;20969;-68
2023/03/24 03:50:27;;;;;;;2.33;2.13;;;13.20;99.90;;;;;;5050717;28;20463;-67
2023/03/24 03:52:54;;;;;;;2.30;1.43;;;13.20;99.90;;;;;;5051078;28;20463;-68
2023/03/24 03:55:21;;;;;;;1.50;1.40;;;13.20;99.90;;;;;;5050537;28;20486;-68
2023/03/24 03:57:50;;;;;;;3.70;1.77;;;13.20;99.90;;;;;;5050296;28;20463;-67
2023/03/24 04:00:19;;;;;;;3.70;1.50;;;13.30;99.90;;;;;;5051022;28;20467;-68
2023/03/24 04:03:10;;;;;;;2.20;1.80;;;13.30;99.90;;;;;;5050548;28;20493;-68
2023/03/24 04:05:45;;;;;;;1.67;1.57;;;13.40;99.90;;;;;;5050321;28;20906;-68
2023/03/24 04:08:24;;;;;;;1.57;1.47;;;13.30;99.90;;;;;;5050712;28;20485;-68
2023/03/24 04:11:19;;;;;;;1.70;1.60;;;13.40;99.90;;;;;;5050457;28;20554;-68
2023/03/24 04:14:02;;;;;;;1.73;1.53;;;13.30;99.90;;;;;;5050346;28;20491;-68
2023/03/24 04:16:39;;;;;;;1.63;1.53;;;13.30;99.90;;;;;;5049412;28;20491;-68
2023/03/24 04:19:15;;;;;;;1.67;1.57;;;13.30;99.90;;;;;;5050952;28;20467;-67
2023/03/24 04:21:53;;;;;;;1.60;1.50;;;13.30;99.90;;;;;;5050175;28;20495;-68
2023/03/24 04:24:31;;;;;;;1.57;1.47;;;13.30;99.90;;;;;;5050329;28;20479;-68
2023/03/24 04:27:08;;;;;;;4.82;1.88;;;13.40;99.90;;;;;;5050123;28;20459;-67
2023/03/24 04:29:41;;;;;;;1.70;1.60;;;13.40;99.90;;;;;;5050079;28;20208;-68
2023/03/24 04:32:18;;;;;;;2.40;2.20;;;13.40;99.90;;;;;;5049359;28;20879;-68
2023/03/24 04:34:49;;;;;;;1.97;1.77;;;13.40;99.90;;;;;;5047403;28;20832;-69
2023/03/24 04:37:21;;;;;;;2.47;1.90;;;13.40;99.90;;;;;;5050102;28;20853;-69
2023/03/24 04:39:49;;;;;;;1.60;1.50;;;13.40;99.90;;;;;;5049965;28;20483;-68
2023/03/24 04:42:20;;;;;;;2.47;1.90;;;13.40;99.90;;;;;;5050263;28;20463;-68
2023/03/24 04:44:50;;;;;;;2.27;1.80;;;13.40;99.90;;;;;;5050070;28;20978;-69
2023/03/24 04:47:19;;;;;;;2.73;2.23;;;13.40;99.90;;;;;;5049652;28;20513;-68
2023/03/24 04:49:46;;;;;;;1.73;1.43;;;13.40;99.90;;;;;;5049948;28;20521;-67
2023/03/24 04:52:12;;;;;;;1.90;1.65;;;13.40;99.90;;;;;;5050335;28;20847;-68
2023/03/24 04:54:39;;;;;;;1.57;1.47;;;13.40;99.90;;;;;;5049581;28;20236;-69
2023/03/24 04:57:06;;;;;;;3.25;1.75;;;13.40;99.90;;;;;;5050276;28;20483;-67
2023/03/24 04:59:33;;;;;;;1.87;1.70;;;13.40;99.90;;;;;;5050114;28;20196;-68
2023/03/24 05:02:01;;;;;;;3.20;1.63;;;13.40;99.90;;;;;;5043949;28;20463;-68
2023/03/24 05:04:29;;;;;;;3.03;1.30;;;13.50;99.90;;;;;;5049561;28;20480;-68
2023/03/24 05:06:56;;;;;;;1.43;1.20;;;13.60;99.90;;;;;;5049836;28;20545;-68
2023/03/24 05:09:24;;;;;;;2.03;1.33;;;13.70;99.90;;;;;;5050183;28;20970;-68
2023/03/24 05:11:51;;;;;;;1.63;1.50;;;13.80;99.90;;;;;;5050456;28;20467;-69
2023/03/24 05:14:18;;;;;;;2.13;1.93;;;13.90;99.90;;;;;;5050464;28;20483;-68
2023/03/24 05:16:45;;;;;;;2.90;1.70;;;14.00;99.90;;;;;;5049115;28;21040;-69
2023/03/24 05:19:13;;;;;;;1.83;1.60;;;14.00;99.90;;;;;;5049899;28;20839;-69
2023/03/24 05:21:40;;;;;;;1.90;1.60;;;14.00;99.90;;;;;;5049323;28;20467;-69
2023/03/24 05:24:07;;;;;;;2.20;2.00;;;14.00;99.90;;;;;;5050252;28;21012;-69
2023/03/24 05:26:34;;;;;;;2.00;1.80;;;14.00;99.90;;;;;;5050231;28;20456;-69
2023/03/24 05:29:01;;;;;;;5.33;2.17;;;14.00;99.90;;;;;;5053748;28;20459;-68
2023/03/24 05:31:28;;;;;;;1.63;1.50;;;13.90;99.90;;;;;;5053587;28;20815;-69
2023/03/24 05:33:55;;;;;;;2.13;1.70;;;13.90;99.90;;;;;;5049629;28;20491;-69
2023/03/24 05:36:23;;;;;;;1.80;1.53;;;13.80;99.90;;;;;;5032090;28;20934;-68
2023/03/24 05:38:50;;;;;;;1.70;1.50;;;13.80;99.90;;;;;;5033529;28;20875;-69
2023/03/24 05:41:16;;;;;;;2.00;1.80;;;13.70;99.90;;;;;;5033519;28;20460;-69
2023/03/24 05:43:43;;;;;;;2.63;1.90;;;13.60;99.90;;;;;;5033063;28;20955;-69
2023/03/24 05:46:10;;;;;;;2.53;2.33;;;13.60;99.90;;;;;;5033408;28;20884;-69
2023/03/24 05:48:37;;;;;;;2.30;1.80;;;13.50;99.90;;;;;;5032592;28;20463;-69
2023/03/24 05:51:04;;;;;;;1.70;1.53;;;13.50;99.90;;;;;;5033477;28;20467;-70
2023/03/24 05:53:32;;;;;;;1.93;1.73;;;13.40;99.90;;;;;;5033212;28;20547;-70
2023/03/24 05:55:58;;;;;;;2.03;1.83;;;13.30;99.90;;;;;;5033200;28;20476;-70
2023/03/24 05:58:25;;;;;;;1.97;1.70;;;13.30;99.90;;;;;;5033071;28;20471;-70
2023/03/24 06:00:53;;;;;;;3.40;2.43;;;13.20;99.90;;;;;;5033145;28;20460;-70
2023/03/24 06:03:20;;;;;;;1.90;1.80;;;13.20;99.90;;;;;;5033022;28;20551;-69
2023/03/24 06:05:46;;;;;;;2.90;1.90;;;13.10;99.90;;;;;;5051239;28;20491;-69
2023/03/24 06:08:13;;;;;;;1.80;1.70;;;13.10;99.90;;;;;;5052699;28;20887;-69
2023/03/24 06:10:41;;;;;;;1.60;1.50;;;13.00;99.90;;;;;;5051526;28;20461;-69
2023/03/24 06:13:08;;;;;;;2.17;1.97;;;13.00;99.90;;;;;;5052543;28;20466;-69
2023/03/24 06:15:38;;;;;;;1.90;1.77;;;13.00;99.90;;;;;;5052082;28;20487;-69
2023/03/24 06:18:05;;;;;;;2.40;2.00;;;13.00;99.90;;;;;;5052860;28;20463;-69
2023/03/24 06:20:32;;;;;;;3.47;1.70;;;12.90;99.90;;;;;;5052958;28;20460;-69
2023/03/24 06:22:59;;;;;;;2.30;2.10;;;12.90;99.90;;;;;;5052527;28;20470;-69
2023/03/24 06:25:27;;;;;;;2.27;2.07;;;12.80;99.90;;;;;;5052281;28;20566;-68
2023/03/24 06:27:55;;;;;;;2.50;2.13;;;12.80;99.90;;;;;;5052484;28;20803;-69
2023/03/24 06:30:22;;;;;;;1.80;1.60;;;12.70;99.90;;;;;;5052688;28;20463;-69
2023/03/24 06:32:49;;;;;;;2.17;1.98;;;12.70;99.90;;;;;;5052773;28;20459;-68
2023/03/24 06:35:16;;;;;;;2.33;2.07;;;12.70;99.90;;;;;;5052652;28;20228;-69
2023/03/24 06:37:43;;;;;;;2.70;1.87;;;12.70;99.90;;;;;;5050388;28;20479;-68
2023/03/24 06:40:13;;;;;;;2.63;2.10;;;12.60;99.90;;;;;;5032563;28;20839;-71
2023/03/24 06:42:40;;;;;;;3.10;2.10;;;12.60;99.90;;;;;;5032112;28;20470;-68
2023/03/24 06:45:10;;;;;;;3.20;2.00;;;12.60;99.90;;;;;;5032532;28;20488;-68
2023/03/24 06:47:37;;;;;;;3.00;2.10;;;12.70;99.90;;;;;;5031683;28;20460;-70
2023/03/24 06:50:04;;;;;;;6.03;2.00;;;12.70;99.90;;;;;;5032631;28;20883;-71
2023/03/24 06:52:32;;;;;;;2.37;1.90;;;12.80;99.90;;;;;;5031926;28;20205;-68
2023/03/24 06:54:59;;;;;;;2.80;2.37;;;12.70;99.90;;;;;;5031968;28;20830;-68
2023/03/24 06:57:26;;;;;;;3.00;2.30;;;12.70;99.90;;;;;;5031602;28;20831;-68
2023/03/24 06:59:53;;;;;;;2.30;2.10;;;12.80;99.90;;;;;;5032291;28;20460;-68
2023/03/24 07:02:21;;;;;;;2.88;2.60;;;12.80;99.90;;;;;;5032042;28;20474;-71
2023/03/24 07:04:49;;;;;;;2.50;2.23;;;12.80;99.90;;;;;;5031614;28;20226;-68
2023/03/24 07:07:16;;;;;;;2.28;2.08;;;12.80;99.90;;;;;;5031714;28;20460;-68
2023/03/24 07:09:43;;;;;;;3.67;2.27;;;12.70;99.90;;;;;;5031966;28;20491;-68
2023/03/24 07:12:10;;;;;;;2.83;2.40;;;12.60;99.90;;;;;;5032001;28;20470;-69
2023/03/24 07:14:37;;;;;;;3.10;2.33;;;12.50;99.90;;;;;;5034467;28;20890;-68
2023/03/24 07:17:04;;;;;;;2.27;2.07;;;12.50;99.90;;;;;;5037817;28;20511;-69
2023/03/24 07:19:32;;;;;;;2.35;2.15;;;12.40;99.90;;;;;;5031589;28;20467;-68
2023/03/24 07:21:59;;;;;;;2.40;2.10;;;12.40;99.90;;;;;;5049411;28;20659;-68
2023/03/24 07:24:26;;;;;;;3.22;2.75;;;12.40;99.90;;;;;;5051021;28;20224;-68
2023/03/24 07:26:53;;;;;;;3.25;2.50;;;12.30;99.90;;;;;;5050426;28;20616;-68
2023/03/24 07:29:19;;;;;;;2.28;2.08;;;12.20;99.90;;;;;;5043555;28;20216;-70
2023/03/24 07:31:47;;;;;;;3.10;2.85;;;12.10;99.90;;;;;;5049634;28;20209;-69
2023/03/24 07:34:14;;;;;;;3.08;2.33;;;12.10;99.90;;;;;;5050757;28;20334;-69
2023/03/24 07:36:43;;;;;;;3.22;2.80;;;12.00;99.90;;;;;;5048849;28;20981;-69
2023/03/24 07:39:10;;;;;;;3.88;2.90;;;12.00;99.90;;;;;;5050934;28;20208;-69
2023/03/24 07:41:37;;;;;;;2.50;2.00;;;11.90;99.90;;;;;;5050194;28;20284;-69
2023/03/24 07:44:05;;;;;;;2.50;2.25;;;11.90;99.90;;;;;;5050434;28;20217;-69
2023/03/24 07:46:31;;;;;;;2.90;2.60;;;11.90;99.90;;;;;;5043368;28;20232;-69
2023/03/24 07:48:59;;;;;;;2.90;2.60;;;11.90;99.90;;;;;;5033003;28;20617;-69
2023/03/24 07:51:26;;;;;;;2.58;2.30;;;11.90;99.90;;;;;;5049047;28;20205;-69
2023/03/24 07:53:55;;;;;;;3.53;2.80;;;11.90;99.90;;;;;;5050171;28;20288;-69
2023/03/24 07:56:23;;;;;;;3.30;2.88;;;12.00;99.90;;;;;;5048024;28;21029;-69
2023/03/24 07:58:50;;;;;;;3.10;2.70;;;12.00;99.90;;;;;;5050891;28;20205;-69
2023/03/24 08:01:18;;;;;;;5.20;2.90;;;12.00;99.90;;;;;;5051594;28;20664;-69
2023/03/24 08:03:47;;;;;;;2.40;2.20;;;12.00;99.90;;;;;;5042762;28;20213;-69
2023/03/24 08:06:15;;;;;;;3.95;2.22;;;11.90;99.90;;;;;;5051343;28;20197;-69
2023/03/24 08:08:43;;;;;;;2.60;2.40;;;11.90;99.90;;;;;;5051247;28;20217;-69
2023/03/24 08:11:11;;;;;;;2.40;2.20;;;12.00;99.90;;;;;;5039120;28;20202;-69
2023/03/24 08:13:38;;;;;;;3.03;2.80;;;12.00;99.90;;;;;;5047086;28;20209;-69
2023/03/24 08:16:05;;;;;;;3.63;2.95;;;12.00;99.90;;;;;;5040019;28;20645;-70
2023/03/24 08:18:33;;;;;;;2.47;2.27;;;12.00;99.90;;;;;;5046099;28;20216;-69
2023/03/24 08:21:01;;;;;;;2.92;2.70;;;12.10;99.90;;;;;;5050887;28;20547;-69
2023/03/24 08:23:28;;;;;;;2.38;2.10;;;12.10;99.90;;;;;;5050774;28;20196;-70
2023/03/24 08:25:54;;;;;;;3.15;2.40;;;12.10;99.90;;;;;;5050767;28;20578;-69
2023/03/24 08:28:23;;;;;;;3.67;2.47;;;12.10;99.90;;;;;;5050757;28;20201;-69
2023/03/24 08:30:49;;;;;;;2.70;2.47;;;12.10;99.90;;;;;;5050418;28;20958;-69
2023/03/24 08:33:16;;;;;;;3.17;2.70;;;12.10;99.90;;;;;;5050290;28;20459;-69
2023/03/24 08:35:45;;;;;;;2.97;2.67;;;12.10;99.90;;;;;;5050173;28;20232;-68
2023/03/24 08:38:15;;;;;;;3.22;2.50;;;12.10;99.90;;;;;;5050396;28;20308;-69
2023/03/24 08:40:43;;;;;;;4.72;2.15;;;12.10;99.90;;;;;;5050308;28;20212;-69
2023/03/24 08:43:14;;;;;;;4.45;2.65;;;12.10;99.90;;;;;;5051051;28;20208;-69
2023/03/24 08:45:42;;;;;;;3.13;2.83;;;12.10;99.90;;;;;;5050076;28;20271;-69
2023/03/24 08:48:10;;;;;;;2.58;2.05;;;12.00;99.90;;;;;;5049973;28;20193;-69
2023/03/24 08:50:39;;;;;;;2.75;2.55;;;12.10;99.90;;;;;;5035166;28;20205;-69
2023/03/24 08:53:06;;;;;;;2.35;2.15;;;12.10;99.90;;;;;;5041870;28;20292;-69
2023/03/24 08:55:33;;;;;;;3.42;2.20;;;12.10;99.90;;;;;;5049923;28;20225;-69
2023/03/24 08:58:00;;;;;;;2.58;2.22;;;12.20;99.90;;;;;;5050177;28;20570;-69
2023/03/24 09:00:27;;;;;;;3.27;2.57;;;12.30;99.90;;;;;;5049689;28;20204;-69
2023/03/24 09:02:57;;;;;;;2.35;1.98;;;12.40;99.90;;;;;;5049350;28;20966;-69
2023/03/24 09:05:25;;;;;;;2.67;1.90;;;12.40;99.90;;;;;;5049913;28;20656;-69
2023/03/24 09:07:53;;;;;;;2.50;2.30;;;12.50;99.90;;;;;;5049768;28;20679;-69
2023/03/24 09:10:21;;;;;;;3.10;2.47;;;12.50;99.90;;;;;;5049947;28;20208;-69
2023/03/24 09:12:49;;;;;;;2.40;2.03;;;12.50;99.90;;;;;;5049328;28;20201;-69
2023/03/24 09:15:16;;;;;;;3.28;3.08;;;12.50;99.90;;;;;;5030051;28;20482;-68
2023/03/24 09:17:42;;;;;;;3.13;2.75;;;12.50;99.90;;;;;;5029616;28;20217;-69
2023/03/24 09:20:13;;;;;;;2.20;2.00;;;12.50;99.90;;;;;;5029666;28;20606;-69
2023/03/24 09:22:41;;;;;;;2.10;1.90;;;12.60;99.90;;;;;;5030042;28;20536;-69
2023/03/24 09:25:10;;;;;;;2.30;2.10;;;12.70;99.90;;;;;;5029284;28;20240;-69
2023/03/24 09:27:36;;;;;;;2.20;1.93;;;12.70;99.90;;;;;;5029888;28;20455;-69
2023/03/24 09:30:05;;;;;;;2.25;1.90;;;12.70;99.90;;;;;;5048818;28;20465;-69
2023/03/24 09:32:33;;;;;;;2.60;2.03;;;12.80;99.90;;;;;;5049495;28;20197;-69
2023/03/24 09:35:00;;;;;;;3.45;2.45;;;12.90;99.90;;;;;;5049503;28;20629;-69
2023/03/24 09:37:30;;;;;;;2.75;1.75;;;13.10;99.90;;;;;;5048647;28;20926;-69
2023/03/24 09:39:57;;;;;;;2.03;1.80;;;13.20;99.90;;;;;;5049444;28;20232;-69
2023/03/24 09:42:27;;;;;;;3.10;2.23;;;13.40;99.90;;;;;;5049449;28;20463;-69
2023/03/24 09:44:56;;;;;;;2.43;2.03;;;13.50;99.90;;;;;;5049590;28;20490;-69
2023/03/24 09:47:29;;;;;;;2.23;2.00;;;13.70;99.90;;;;;;5049350;28;20459;-69
2023/03/24 09:50:02;;;;;;;3.03;2.10;;;14.20;99.90;;;;;;5049285;28;20895;-69
2023/03/24 09:52:34;;;;;;;1.63;1.53;;;14.20;99.90;;;;;;5049374;28;20463;-69
2023/03/24 09:55:02;;;;;;;1.67;1.57;;;14.20;99.90;;;;;;5049203;28;20490;-69
2023/03/24 09:57:35;;;;;;;2.17;1.97;;;14.10;99.90;;;;;;5048899;28;20518;-69
2023/03/24 10:00:09;;;;;;;2.47;2.27;;;14.40;99.90;;;;;;5030728;28;20499;-69
2023/03/24 10:02:36;;;;;;;3.80;2.80;;;15.00;99.90;;;;;;5029735;28;20893;-69
2023/03/24 10:05:12;;;;;;;3.47;1.87;;;16.00;99.90;;;;;;5029220;28;20487;-69
2023/03/24 10:07:47;;;;;;;1.87;1.77;;;16.80;99.90;;;;;;5029267;28;20467;-69
2023/03/24 10:10:23;;;;;;;2.40;2.13;;;17.70;99.90;;;;;;5029566;28;20958;-69
2023/03/24 10:12:50;;;;;;;2.87;2.13;;;17.90;99.90;;;;;;5029156;28;20463;-69
2023/03/24 10:15:26;;;;;;;2.00;1.80;;;17.30;99.90;;;;;;5033604;28;20484;-70
2023/03/24 10:18:00;;;;;;;1.50;1.40;;;16.90;99.90;;;;;;5033179;28;20487;-69
2023/03/24 10:20:34;;;;;;;3.47;2.00;;;16.30;99.90;;;;;;5032907;28;20971;-69
2023/03/24 10:23:16;;;;;;;1.90;1.57;;;16.10;99.90;;;;;;5032637;28;20953;-69
2023/03/24 10:25:51;;;;;;;2.53;1.47;;;16.00;99.90;;;;;;5031679;28;20487;-69
2023/03/24 10:28:20;;;;;;;1.40;1.30;;;16.00;99.90;;;;;;5032935;28;20459;-71
2023/03/24 10:30:49;;;;;;;1.60;1.30;;;15.70;99.90;;;;;;5033106;28;20492;-69
2023/03/24 10:33:17;;;;;;;1.57;1.40;;;15.80;99.90;;;;;;5049375;28;20467;-69
2023/03/24 10:35:50;;;;;;;1.70;1.60;;;16.10;99.90;;;;;;5052848;28;20511;-69
2023/03/24 10:38:20;;;;;;;1.30;1.20;;;16.30;99.90;;;;;;5052013;28;20482;-70
2023/03/24 10:40:48;;;;;;;1.33;1.23;;;16.50;99.90;;;;;;5032824;28;20471;-69
2023/03/24 10:43:17;;;;;;;1.10;1.00;;;16.30;99.90;;;;;;5032871;28;21037;-71
2023/03/24 10:45:47;;;;;;;2.80;1.20;;;16.20;99.90;;;;;;5032545;28;20480;-69
2023/03/24 10:48:15;;;;;;;1.70;1.20;;;16.10;99.90;;;;;;5051701;28;20451;-69
2023/03/24 10:50:44;;;;;;;3.47;1.10;;;16.00;99.90;;;;;;5052483;28;20494;-69
2023/03/24 10:53:19;;;;;;;1.43;1.10;;;16.10;99.90;;;;;;5052507;28;20967;-69
2023/03/24 10:55:47;;;;;;;1.03;0.93;;;16.00;99.90;;;;;;5051889;28;20481;-69
2023/03/24 10:58:20;;;;;;;1.17;1.07;;;16.00;99.90;;;;;;5052138;28;20485;-69
2023/03/24 11:00:47;;;;;;;1.43;1.30;;;15.70;99.90;;;;;;5052027;28;20521;-69
2023/03/24 11:03:17;;;;;;;1.20;1.03;;;15.70;99.90;;;;;;5176488;22;20601;-69
2023/03/24 11:05:45;;;;;;;1.40;1.20;;;15.50;99.90;;;;;;5085580;28;21027;-70
2023/03/24 11:08:27;;;;;;;1.63;1.13;;;15.40;99.90;;;;;;5092213;28;20473;-70
2023/03/24 11:10:54;;;;;;;1.20;1.10;;;15.60;99.90;;;;;;5088974;28;20849;-70
2023/03/24 11:13:28;;;;;;;1.20;1.10;;;16.00;99.90;;;;;;5092138;28;20583;-70
2023/03/24 11:16:03;;;;;;;1.63;1.23;;;16.80;99.90;;;;;;5092082;28;20491;-69
2023/03/24 11:18:30;;;;;;;1.27;1.17;;;17.20;99.90;;;;;;5092038;28;20546;-70
2023/03/24 11:21:02;;;;;;;2.70;1.10;;;17.20;99.90;;;;;;5092225;28;20468;-69
2023/03/24 11:23:33;;;;;;;1.40;1.00;;;17.00;99.90;;;;;;5091777;28;20480;-70
2023/03/24 11:26:08;;;;;;;1.53;1.20;;;16.50;99.90;;;;;;5091122;28;20544;-70
2023/03/24 11:28:39;;;;;;;1.30;1.10;;;16.30;99.90;;;;;;5091835;28;20457;-70
2023/03/24 11:31:08;;;;;;;1.60;1.50;;;16.10;99.90;;;;;;5091635;28;20458;-70
2023/03/24 11:33:43;;;;;;;1.33;1.23;;;16.00;99.90;;;;;;5091705;28;20461;-70
2023/03/24 11:36:51;;;;;;;1.23;1.00;;;16.10;99.90;;;;;;5091732;28;20461;-70
2023/03/24 11:39:22;;;;;;;1.27;0.90;;;16.30;99.90;;;;;;5054817;28;20905;-70
2023/03/24 11:42:04;;;;;;;1.10;0.90;;;16.70;99.90;;;;;;5092668;28;20464;-71
2023/03/24 11:44:40;;;;;;;1.30;1.20;;;16.40;99.90;;;;;;5092063;28;20485;-70
2023/03/24 11:47:10;;;;;;;1.27;1.17;;;16.10;99.90;;;;;;5091041;28;20461;-70
2023/03/24 11:49:43;;;;;;;1.53;1.07;;;16.00;99.90;;;;;;5091243;28;20461;-70
2023/03/24 11:52:18;;;;;;;1.00;0.90;;;15.90;99.90;;;;;;5091318;28;20465;-70
2023/03/24 11:54:46;;;;;;;1.00;0.90;;;15.90;99.90;;;;;;5091550;28;20568;-70
2023/03/24 11:57:16;;;;;;;1.10;0.97;;;15.80;99.90;;;;;;5091355;28;20925;-70
2023/03/24 11:59:51;;;;;;;1.20;0.97;;;15.70;99.90;;;;;;5091070;28;20890;-70
2023/03/24 12:02:25;;;;;;;2.37;0.83;;;15.70;99.90;;;;;;5090310;28;20457;-69
2023/03/24 12:05:03;;;;;;;1.17;0.97;;;15.60;99.90;;;;;;5091016;28;20481;-70
2023/03/24 12:07:47;;;;;;;0.97;0.87;;;15.50;99.90;;;;;;5090700;28;20496;-70
2023/03/24 12:10:27;;;;;;;1.13;1.03;;;15.50;99.90;;;;;;5090978;28;20462;-71
2023/03/24 12:13:03;;;;;;;1.00;0.90;;;15.60;99.90;;;;;;5091161;28;20483;-70
2023/03/24 12:15:42;;;;;;;0.90;0.80;;;15.60;99.90;;;;;;5089494;28;20477;-70
2023/03/24 12:18:37;;;;;;;1.00;0.90;;;15.50;99.90;;;;;;5090531;28;20481;-70
2023/03/24 12:21:12;;;;;;;0.80;0.70;;;15.50;99.90;;;;;;5090964;28;20501;-71
2023/03/24 12:23:49;;;;;;;0.90;0.77;;;15.50;99.90;;;;;;5089905;28;20472;-70
2023/03/24 12:26:20;;;;;;;0.80;0.70;;;15.70;99.90;;;;;;5089774;28;20464;-70
2023/03/24 12:29:19;;;;;;;1.00;0.80;;;15.90;99.90;;;;;;5090636;28;20876;-70
2023/03/24 12:32:04;;;;;;;1.10;0.80;;;15.80;99.90;;;;;;5062728;28;20953;-70
2023/03/24 12:34:48;;;;;;;0.80;0.70;;;15.50;99.90;;;;;;5090293;28;20473;-70
2023/03/24 12:37:23;;;;;;;0.93;0.80;;;15.40;99.90;;;;;;5089511;28;20454;-70
2023/03/24 12:39:59;;;;;;;0.90;0.80;;;15.40;99.90;;;;;;5090074;28;20991;-70
2023/03/24 12:42:33;;;;;;;1.13;0.90;;;15.30;99.90;;;;;;5090559;28;20458;-71
2023/03/24 12:45:31;;;;;;;1.10;1.00;;;15.20;99.90;;;;;;5090321;28;20838;-73
2023/03/24 12:48:38;;;;;;;1.10;1.00;;;15.10;99.90;;;;;;5090259;28;20525;-70
2023/03/24 12:51:18;;;;;;;0.80;0.80;;;15.10;99.90;;;;;;5089351;28;20457;-71
2023/03/24 12:53:56;;;;;;;1.00;0.90;;;15.20;99.90;;;;;;5090252;28;20473;-70
2023/03/24 12:56:29;;;;;;;0.90;0.80;;;15.40;99.90;;;;;;5090119;28;20831;-68
2023/03/24 12:59:01;;;;;;;1.13;1.03;;;15.30;99.90;;;;;;5090595;28;20588;-70
2023/03/24 13:01:33;;;;;;;0.93;0.70;;;15.20;99.90;;;;;;5089689;28;21030;-70
2023/03/24 13:04:08;;;;;;;1.77;0.90;;;15.20;99.90;;;;;;5089593;28;20520;-70
2023/03/24 13:06:38;;;;;;;1.10;0.90;;;15.30;99.90;;;;;;5089710;28;20457;-71
2023/03/24 13:09:16;;;;;;;1.10;0.90;;;15.40;99.90;;;;;;5090062;28;20464;-71